Time;durP1;ratioP1;P1;durP2;ratioP2;P2;SDS_P1;SDS_P2;PMS_P1;PMS_P2;Temp;Humidity;BMP_temperature;BMP_pressure;BME280_temperature;BME280_humidity;BME280_pressure;Samples;Min_cycle;Max_cycle;Signal;HPM_P1;HPM_P2
2023/04/21 00:00:06;;;;;;;14.90;3.63;;;;;;;;;;4912238;28;21372;-70
2023/04/21 00:02:52;;;;;;;14.80;3.70;;;;;;;;;;4912453;28;20697;-71
2023/04/21 00:05:18;;;;;;;20.90;4.18;;;;;;;;;;4911979;28;20186;-71
2023/04/21 00:07:44;;;;;;;23.08;4.57;;;;;;;;;;4910742;29;20059;-70
2023/04/21 00:10:11;;;;;;;19.60;4.22;;;;;;;;;;4920563;28;20063;-71
2023/04/21 00:12:37;;;;;;;13.73;4.03;;;;;;;;;;4914473;28;20056;-71
2023/04/21 00:15:04;;;;;;;21.90;4.70;;;;;;;;;;4913235;28;20052;-71
2023/04/21 00:17:30;;;;;;;14.52;4.05;;;;;;;;;;4910051;29;20051;-70
2023/04/21 00:19:57;;;;;;;17.48;3.58;;;;;;;;;;4912088;28;20420;-70
2023/04/21 00:22:23;;;;;;;16.67;3.92;;;;;;;;;;4908333;28;20476;-70
2023/04/21 00:24:49;;;;;;;27.30;5.32;;;;;;;;;;4911174;28;20163;-70
2023/04/21 00:27:15;;;;;;;19.75;4.65;;;;;;;;;;4912327;28;20098;-70
2023/04/21 00:29:41;;;;;;;19.50;4.35;;;;;;;;;;4911733;28;20059;-71
2023/04/21 00:32:08;;;;;;;21.80;3.90;;;;;;;;;;4909701;29;20063;-67
2023/04/21 00:34:37;;;;;;;16.25;3.92;;;;;;;;;;4914765;28;20056;-71
2023/04/21 00:37:04;;;;;;;26.95;4.45;;;;;;;;;;4911831;28;20065;-71
2023/04/21 00:39:30;;;;;;;19.45;4.30;;;;;;;;;;4916008;28;20060;-70
2023/04/21 00:41:56;;;;;;;18.65;4.30;;;;;;;;;;4914017;28;20063;-70
2023/04/21 00:44:22;;;;;;;21.77;4.68;;;;;;;;;;4914077;28;20394;-73
2023/04/21 00:46:48;;;;;;;13.30;4.30;;;;;;;;;;4915115;28;20060;-72
2023/04/21 00:49:15;;;;;;;16.77;4.20;;;;;;;;;;4914054;28;20091;-69
2023/04/21 00:51:41;;;;;;;23.48;4.25;;;;;;;;;;4912719;28;20109;-70
2023/04/21 00:54:09;;;;;;;17.48;4.20;;;;;;;;;;4909514;29;21268;-70
2023/04/21 00:56:35;;;;;;;25.30;4.97;;;;;;;;;;4911098;28;20044;-70
2023/04/21 00:59:02;;;;;;;11.43;4.32;;;;;;;;;;4910312;28;20062;-71
2023/04/21 01:01:29;;;;;;;15.25;4.60;;;;;;;;;;4909554;28;20067;-70
2023/04/21 01:03:59;;;;;;;23.08;5.00;;;;;;;;;;4909098;28;20071;-71
2023/04/21 01:06:35;;;;;;;14.82;4.57;;;;;;;;;;4912874;28;20070;-72
2023/04/21 01:09:02;;;;;;;19.70;5.18;;;;;;;;;;4914105;28;20583;-69
2023/04/21 01:11:30;;;;;;;15.27;4.63;;;;;;;;;;4916310;28;20066;-68
2023/04/21 01:13:58;;;;;;;20.90;5.03;;;;;;;;;;4908084;28;20142;-71
2023/04/21 01:16:25;;;;;;;17.27;5.05;;;;;;;;;;4910809;28;20141;-70
2023/04/21 01:18:55;;;;;;;15.00;4.45;;;;;;;;;;4906859;28;20081;-72
2023/04/21 01:21:22;;;;;;;14.77;4.90;;;;;;;;;;4908372;29;20496;-71
2023/04/21 01:23:48;;;;;;;16.98;4.65;;;;;;;;;;4908546;28;20063;-70
2023/04/21 01:26:17;;;;;;;14.77;5.05;;;;;;;;;;4905741;28;20099;-69
2023/04/21 01:28:43;;;;;;;18.00;5.47;;;;;;;;;;4907305;29;20083;-66
2023/04/21 01:31:09;;;;;;;15.00;4.78;;;;;;;;;;4910922;29;20055;-69
2023/04/21 01:33:36;;;;;;;17.58;4.88;;;;;;;;;;4908716;28;20047;-71
2023/04/21 01:36:03;;;;;;;21.30;5.10;;;;;;;;;;4910132;29;20118;-70
2023/04/21 01:38:28;;;;;;;19.02;4.88;;;;;;;;;;4905062;28;20063;-70
2023/04/21 01:40:54;;;;;;;20.25;5.60;;;;;;;;;;4921525;28;20498;-71
2023/04/21 01:43:23;;;;;;;19.73;5.43;;;;;;;;;;4911531;28;20532;-70
2023/04/21 01:45:50;;;;;;;18.02;6.47;;;;;;;;;;4912015;28;20054;-70
2023/04/21 01:48:15;;;;;;;23.42;6.72;;;;;;;;;;4913115;28;20055;-71
2023/04/21 01:50:43;;;;;;;26.45;7.68;;;;;;;;;;4908840;28;20048;-70
2023/04/21 01:53:08;;;;;;;27.48;8.27;;;;;;;;;;4912994;28;20416;-70
2023/04/21 01:55:35;;;;;;;30.05;8.05;;;;;;;;;;4907621;28;20066;-69
2023/04/21 01:58:00;;;;;;;26.30;8.80;;;;;;;;;;4911017;28;21012;-69
2023/04/21 02:00:28;;;;;;;35.88;9.48;;;;;;;;;;4910222;28;20055;-69
2023/04/21 02:02:53;;;;;;;24.67;8.48;;;;;;;;;;4913390;28;20674;-72
2023/04/21 02:05:19;;;;;;;30.45;9.00;;;;;;;;;;4926809;28;20056;-71
2023/04/21 02:07:47;;;;;;;25.13;8.85;;;;;;;;;;4915100;28;20040;-70
2023/04/21 02:10:13;;;;;;;22.20;8.13;;;;;;;;;;4925027;28;20071;-70
2023/04/21 02:12:39;;;;;;;28.63;7.97;;;;;;;;;;4919867;28;20293;-69
2023/04/21 02:15:06;;;;;;;22.90;7.68;;;;;;;;;;4909953;28;20044;-69
2023/04/21 02:17:32;;;;;;;20.23;7.40;;;;;;;;;;4910026;28;20062;-71
2023/04/21 02:19:59;;;;;;;17.00;6.82;;;;;;;;;;4907240;28;20063;-70
2023/04/21 02:22:24;;;;;;;22.88;6.78;;;;;;;;;;4908767;28;20255;-71
2023/04/21 02:24:51;;;;;;;31.20;6.60;;;;;;;;;;4905160;28;20076;-72
2023/04/21 02:27:16;;;;;;;19.40;6.07;;;;;;;;;;4905247;28;20170;-72
2023/04/21 02:29:42;;;;;;;20.38;5.82;;;;;;;;;;4908521;28;20958;-70
2023/04/21 02:32:08;;;;;;;16.55;5.10;;;;;;;;;;4910249;28;20678;-69
2023/04/21 02:34:34;;;;;;;20.92;6.03;;;;;;;;;;4909833;28;20062;-69
2023/04/21 02:37:01;;;;;;;20.90;5.75;;;;;;;;;;4911301;28;20055;-69
2023/04/21 02:39:27;;;;;;;20.55;5.50;;;;;;;;;;4909447;28;20412;-70
2023/04/21 02:41:54;;;;;;;23.90;5.70;;;;;;;;;;4909493;28;20051;-69
2023/04/21 02:44:21;;;;;;;24.45;5.97;;;;;;;;;;4909486;28;20509;-69
2023/04/21 02:46:47;;;;;;;26.80;5.50;;;;;;;;;;4911261;28;20120;-72
2023/04/21 02:49:14;;;;;;;27.65;5.95;;;;;;;;;;4915910;28;20102;-72
2023/04/21 02:51:40;;;;;;;20.35;4.72;;;;;;;;;;4914533;28;20051;-72
2023/04/21 02:54:06;;;;;;;26.15;5.82;;;;;;;;;;4915856;28;20051;-72
2023/04/21 02:56:33;;;;;;;24.58;5.15;;;;;;;;;;4917451;28;20488;-69
2023/04/21 02:58:59;;;;;;;17.23;4.32;;;;;;;;;;4918796;28;20607;-70
2023/04/21 03:01:25;;;;;;;15.20;4.55;;;;;;;;;;4910953;28;20062;-69
2023/04/21 03:03:51;;;;;;;21.85;6.18;;;;;;;;;;4913425;28;20455;-69
2023/04/21 03:06:17;;;;;;;29.92;6.00;;;;;;;;;;4910073;28;20048;-68
2023/04/21 03:08:43;;;;;;;24.88;5.38;;;;;;;;;;4902679;28;21146;-70
2023/04/21 03:11:09;;;;;;;32.05;5.93;;;;;;;;;;4909186;28;20107;-71
2023/04/21 03:13:36;;;;;;;24.73;5.70;;;;;;;;;;4912972;28;20432;-70
2023/04/21 03:16:02;;;;;;;24.52;5.25;;;;;;;;;;4907977;28;20590;-71
2023/04/21 03:18:28;;;;;;;20.33;4.47;;;;;;;;;;4908001;28;20749;-69
2023/04/21 03:21:00;;;;;;;21.33;4.82;;;;;;;;;;4909143;28;20055;-69
2023/04/21 03:23:27;;;;;;;19.77;4.90;;;;;;;;;;4909475;28;20355;-70
2023/04/21 03:25:54;;;;;;;29.40;5.05;;;;;;;;;;4907648;28;20063;-69
2023/04/21 03:28:20;;;;;;;19.90;4.55;;;;;;;;;;4908186;28;20064;-70
2023/04/21 03:30:46;;;;;;;16.60;3.80;;;;;;;;;;4911456;28;20063;-69
2023/04/21 03:33:12;;;;;;;21.60;4.40;;;;;;;;;;4909855;28;20111;-70
2023/04/21 03:35:39;;;;;;;16.05;4.10;;;;;;;;;;4910444;28;20229;-69
2023/04/21 03:38:06;;;;;;;21.52;3.72;;;;;;;;;;4920257;28;20141;-69
2023/04/21 03:40:32;;;;;;;21.88;3.47;;;;;;;;;;4906853;28;20085;-70
2023/04/21 03:42:58;;;;;;;16.63;4.00;;;;;;;;;;4912869;28;20055;-68
2023/04/21 03:45:24;;;;;;;20.20;3.60;;;;;;;;;;4907278;28;20468;-68
2023/04/21 03:47:54;;;;;;;16.58;3.35;;;;;;;;;;4909859;29;20178;-68
2023/04/21 03:50:20;;;;;;;14.63;3.33;;;;;;;;;;4910011;28;20050;-68
2023/04/21 03:52:46;;;;;;;22.30;4.50;;;;;;;;;;4911238;28;20055;-71
2023/04/21 03:55:12;;;;;;;19.73;3.13;;;;;;;;;;4909904;28;20416;-68
2023/04/21 03:57:40;;;;;;;21.98;4.28;;;;;;;;;;4905761;28;21288;-68
2023/04/21 04:00:10;;;;;;;17.52;3.25;;;;;;;;;;4905036;28;20669;-71
2023/04/21 04:02:37;;;;;;;12.20;3.30;;;;;;;;;;4909307;28;20051;-70
2023/04/21 04:05:04;;;;;;;20.98;3.42;;;;;;;;;;4906798;28;20086;-69
2023/04/21 04:07:32;;;;;;;12.95;3.15;;;;;;;;;;4904222;28;20056;-69
2023/04/21 04:09:57;;;;;;;16.15;3.80;;;;;;;;;;4907537;28;20637;-73
2023/04/21 04:12:24;;;;;;;19.30;2.75;;;;;;;;;;4921821;28;20058;-70
2023/04/21 04:14:51;;;;;;;17.65;3.50;;;;;;;;;;4910173;28;20048;-70
2023/04/21 04:17:17;;;;;;;20.52;3.58;;;;;;;;;;4911212;28;20055;-69
2023/04/21 04:19:43;;;;;;;18.77;3.40;;;;;;;;;;4911836;28;20710;-70
2023/04/21 04:22:11;;;;;;;17.70;4.07;;;;;;;;;;4914075;28;20055;-70
2023/04/21 04:24:37;;;;;;;17.27;3.47;;;;;;;;;;4912414;28;20395;-71
2023/04/21 04:27:04;;;;;;;19.50;3.63;;;;;;;;;;4912535;28;20428;-70
2023/04/21 04:29:31;;;;;;;20.67;3.58;;;;;;;;;;4913489;28;20119;-72
2023/04/21 04:31:57;;;;;;;20.60;4.63;;;;;;;;;;4913189;28;20590;-70
2023/04/21 04:34:23;;;;;;;22.48;3.83;;;;;;;;;;4911559;28;20090;-72
2023/04/21 04:36:50;;;;;;;14.50;3.33;;;;;;;;;;4911444;28;20070;-70
2023/04/21 04:39:16;;;;;;;20.30;4.90;;;;;;;;;;4914408;28;20632;-70
2023/04/21 04:41:43;;;;;;;22.20;3.97;;;;;;;;;;4915742;28;20067;-70
2023/04/21 04:44:11;;;;;;;15.68;3.75;;;;;;;;;;4912227;28;20043;-71
2023/04/21 04:46:38;;;;;;;14.05;4.15;;;;;;;;;;4911712;28;20052;-71
2023/04/21 04:49:05;;;;;;;17.17;4.32;;;;;;;;;;4910500;28;20524;-70
2023/04/21 04:51:31;;;;;;;18.00;4.18;;;;;;;;;;4914110;28;20050;-71
2023/04/21 04:53:57;;;;;;;19.65;4.15;;;;;;;;;;4912768;28;20059;-70
2023/04/21 04:56:30;;;;;;;18.67;4.03;;;;;;;;;;4913135;28;21664;-73
2023/04/21 04:58:56;;;;;;;21.10;4.18;;;;;;;;;;4924677;28;20494;-70
2023/04/21 05:01:28;;;;;;;21.25;4.20;;;;;;;;;;4909285;28;20052;-71
2023/04/21 05:03:53;;;;;;;19.48;4.63;;;;;;;;;;4911208;28;20055;-69
2023/04/21 05:06:21;;;;;;;19.33;4.88;;;;;;;;;;4913896;28;20063;-70
2023/04/21 05:08:47;;;;;;;17.23;4.85;;;;;;;;;;4912941;28;20058;-70
2023/04/21 05:11:13;;;;;;;22.55;4.80;;;;;;;;;;4911176;28;20059;-72
2023/04/21 05:13:40;;;;;;;22.92;4.63;;;;;;;;;;4934222;28;20048;-71
2023/04/21 05:16:08;;;;;;;19.70;4.78;;;;;;;;;;4912120;28;20671;-70
2023/04/21 05:18:37;;;;;;;19.73;5.03;;;;;;;;;;4915320;28;20047;-73
2023/04/21 05:21:03;;;;;;;16.15;4.55;;;;;;;;;;4911797;28;20056;-73
2023/04/21 05:23:29;;;;;;;21.88;5.00;;;;;;;;;;4912098;28;20586;-71
2023/04/21 05:25:56;;;;;;;19.77;4.80;;;;;;;;;;4910622;28;20059;-74
2023/04/21 05:28:22;;;;;;;23.42;6.38;;;;;;;;;;4919327;28;20063;-68
2023/04/21 05:30:49;;;;;;;15.55;5.57;;;;;;;;;;4911087;28;20055;-70
2023/04/21 05:33:20;;;;;;;23.73;6.72;;;;;;;;;;4909988;28;20054;-68
2023/04/21 05:35:48;;;;;;;26.58;6.32;;;;;;;;;;4913180;28;20555;-73
2023/04/21 05:38:14;;;;;;;21.40;5.95;;;;;;;;;;4911635;28;20052;-69
2023/04/21 05:40:44;;;;;;;34.05;6.85;;;;;;;;;;4910785;28;20500;-68
2023/04/21 05:43:11;;;;;;;27.70;7.00;;;;;;;;;;4912429;28;20495;-74
2023/04/21 05:45:40;;;;;;;22.02;6.45;;;;;;;;;;4912523;28;20115;-70
2023/04/21 05:48:06;;;;;;;24.95;6.80;;;;;;;;;;4930175;28;20170;-70
2023/04/21 05:50:34;;;;;;;23.80;6.35;;;;;;;;;;4913795;28;20059;-73
2023/04/21 05:53:01;;;;;;;20.92;6.40;;;;;;;;;;4909756;28;20056;-72
2023/04/21 05:55:27;;;;;;;26.25;6.80;;;;;;;;;;4925324;28;20163;-74
2023/04/21 05:57:53;;;;;;;27.33;6.72;;;;;;;;;;4912893;28;20063;-72
2023/04/21 06:00:22;;;;;;;27.60;7.65;;;;;;;;;;4908832;28;20047;-73
2023/04/21 06:02:48;;;;;;;26.75;8.20;;;;;;;;;;4909438;28;20183;-73
2023/04/21 06:05:14;;;;;;;20.60;7.38;;;;;;;;;;4911322;28;20492;-71
2023/04/21 06:08:21;;;;;;;28.35;7.18;;;;;;;;;;4912996;28;20067;-73
2023/04/21 06:12:01;;;;;;;27.95;8.77;;;;;;;;;;4924142;28;20059;-74
2023/04/21 06:15:42;;;;;;;17.42;6.60;;;;;;;;;;4923907;28;20531;-76
2023/04/21 06:19:22;;;;;;;20.75;6.03;;;;;;;;;;4911633;28;20421;-73
2023/04/21 06:23:02;;;;;;;24.15;6.55;;;;;;;;;;4913265;28;20584;-73
2023/04/21 06:26:43;;;;;;;20.65;8.25;;;;;;;;;;4910902;28;20056;-74
2023/04/21 06:30:23;;;;;;;17.50;5.57;;;;;;;;;;4914226;28;20512;-72
2023/04/21 06:34:03;;;;;;;19.92;5.43;;;;;;;;;;4910359;28;20143;-72
2023/04/21 06:37:44;;;;;;;20.77;5.60;;;;;;;;;;4908570;28;20673;-69
2023/04/21 06:41:25;;;;;;;20.15;5.47;;;;;;;;;;4905570;28;20251;-73
2023/04/21 06:45:06;;;;;;;24.92;6.78;;;;;;;;;;4911651;28;20188;-71
2023/04/21 06:48:46;;;;;;;19.95;5.78;;;;;;;;;;4907552;28;20107;-67
2023/04/21 06:52:26;;;;;;;23.90;6.03;;;;;;;;;;4910542;28;20105;-74
2023/04/21 06:56:06;;;;;;;25.90;7.65;;;;;;;;;;4908434;28;20060;-73
2023/04/21 06:59:47;;;;;;;20.50;5.22;;;;;;;;;;4907675;29;20035;-77
2023/04/21 07:03:27;;;;;;;17.38;5.22;;;;;;;;;;4906411;28;20443;-72
2023/04/21 07:07:07;;;;;;;17.42;6.10;;;;;;;;;;4909535;28;20223;-73
2023/04/21 07:10:08;;;;;;;28.73;5.40;;;;;;;;;;4911121;28;20047;-70
2023/04/21 07:13:16;;;;;;;18.38;5.00;;;;;;;;;;4906128;29;20491;-71
2023/04/21 07:16:56;;;;;;;17.52;4.25;;;;;;;;;;4906006;28;20056;-74
2023/04/21 07:20:37;;;;;;;19.65;4.72;;;;;;;;;;4910389;28;20052;-71
2023/04/21 07:23:44;;;;;;;16.33;4.90;;;;;;;;;;4910863;28;20464;-75
2023/04/21 07:27:24;;;;;;;19.20;5.10;;;;;;;;;;4908177;28;20062;-74
2023/04/21 07:31:05;;;;;;;23.77;4.45;;;;;;;;;;4907355;28;20499;-74
2023/04/21 07:34:47;;;;;;;14.48;4.35;;;;;;;;;;4907621;28;20068;-73
2023/04/21 07:38:25;;;;;;;21.02;4.28;;;;;;;;;;4907739;28;20142;-73
2023/04/21 07:42:07;;;;;;;20.02;4.70;;;;;;;;;;4909159;29;20050;-73
2023/04/21 07:45:47;;;;;;;14.00;4.68;;;;;;;;;;4910818;28;21916;-72
2023/04/21 07:49:29;;;;;;;16.83;4.15;;;;;;;;;;4911049;28;20976;-72
2023/04/21 07:53:09;;;;;;;16.23;4.82;;;;;;;;;;4909925;28;20093;-72
2023/04/21 07:56:49;;;;;;;21.55;4.95;;;;;;;;;;4910880;28;20048;-73
2023/04/21 08:00:30;;;;;;;19.15;4.43;;;;;;;;;;4907750;28;20272;-73
2023/04/21 08:04:10;;;;;;;24.67;5.28;;;;;;;;;;4912055;29;20058;-72
2023/04/21 08:07:50;;;;;;;21.70;4.90;;;;;;;;;;4912356;28;21099;-73
2023/04/21 08:11:31;;;;;;;22.90;4.60;;;;;;;;;;4918490;28;20043;-72
2023/04/21 08:15:11;;;;;;;26.15;5.03;;;;;;;;;;4912007;28;20828;-75
2023/04/21 08:18:51;;;;;;;21.08;4.38;;;;;;;;;;4910497;29;20763;-74
2023/04/21 08:22:32;;;;;;;25.98;5.65;;;;;;;;;;4911381;29;20048;-71
2023/04/21 08:26:13;;;;;;;22.73;4.57;;;;;;;;;;4916449;28;20059;-71
2023/04/21 08:29:53;;;;;;;17.42;4.55;;;;;;;;;;4918427;28;20054;-72
2023/04/21 08:33:33;;;;;;;18.15;4.10;;;;;;;;;;4914334;28;20130;-71
2023/04/21 08:37:14;;;;;;;18.30;4.55;;;;;;;;;;4912739;28;20047;-72
2023/04/21 08:40:54;;;;;;;17.88;3.83;;;;;;;;;;4911052;28;20105;-72
2023/04/21 08:44:35;;;;;;;14.25;3.65;;;;;;;;;;4908817;28;20063;-73
2023/04/21 08:48:17;;;;;;;16.83;3.92;;;;;;;;;;4912269;28;20064;-72
2023/04/21 08:51:55;;;;;;;21.13;4.18;;;;;;;;;;4906540;28;20084;-74
2023/04/21 08:55:36;;;;;;;19.65;4.35;;;;;;;;;;4907690;29;20409;-74
2023/04/21 08:59:16;;;;;;;19.63;3.90;;;;;;;;;;4910079;28;20044;-73
2023/04/21 09:03:14;;;;;;;13.00;3.58;;;;;;;;;;4907287;28;20065;-74
2023/04/21 09:07:01;;;;;;;11.38;3.15;;;;;;;;;;4910106;28;20134;-72
2023/04/21 09:10:44;;;;;;;13.60;3.60;;;;;;;;;;4911888;28;20074;-72
2023/04/21 09:14:24;;;;;;;13.48;3.72;;;;;;;;;;4925504;29;20040;-73
2023/04/21 09:17:40;;;;;;;16.90;4.03;;;;;;;;;;4915180;28;20066;-71
2023/04/21 09:21:26;;;;;;;19.52;4.95;;;;;;;;;;4907267;28;20415;-72
2023/04/21 09:25:09;;;;;;;22.88;4.93;;;;;;;;;;4910811;28;20063;-73
2023/04/21 09:28:49;;;;;;;17.55;4.32;;;;;;;;;;4914332;28;20503;-74
2023/04/21 09:32:30;;;;;;;21.58;4.70;;;;;;;;;;4910355;28;20055;-72
2023/04/21 09:36:11;;;;;;;22.48;4.78;;;;;;;;;;4906596;28;20051;-72
2023/04/21 09:39:50;;;;;;;19.95;4.03;;;;;;;;;;4911039;28;20087;-72
2023/04/21 09:43:31;;;;;;;23.63;4.47;;;;;;;;;;4910105;29;20060;-72
2023/04/21 09:47:12;;;;;;;21.75;5.53;;;;;;;;;;4912680;28;20093;-72
2023/04/21 09:50:52;;;;;;;15.73;5.18;;;;;;;;;;4907637;28;20055;-74
2023/04/21 09:54:32;;;;;;;23.17;4.53;;;;;;;;;;4897793;28;20060;-71
2023/04/21 09:58:14;;;;;;;21.63;4.95;;;;;;;;;;4911625;28;20079;-72
2023/04/21 10:01:52;;;;;;;25.23;4.00;;;;;;;;;;4908541;29;20160;-73
2023/04/21 10:05:34;;;;;;;19.77;5.32;;;;;;;;;;4913890;28;20123;-72
2023/04/21 10:09:14;;;;;;;26.33;5.15;;;;;;;;;;4906743;29;20611;-73
2023/04/21 10:12:55;;;;;;;25.83;5.13;;;;;;;;;;4931450;28;20507;-75
2023/04/21 10:16:44;;;;;;;22.55;4.95;;;;;;;;;;4913212;29;20052;-73
2023/04/21 10:20:34;;;;;;;17.65;5.72;;;;;;;;;;4909925;28;20049;-73
2023/04/21 10:24:21;;;;;;;31.33;5.07;;;;;;;;;;4909099;28;20661;-75
2023/04/21 10:28:10;;;;;;;31.00;5.22;;;;;;;;;;4908082;29;20138;-73
2023/04/21 10:31:18;;;;;;;26.88;5.57;;;;;;;;;;4903170;29;20047;-72
2023/04/21 10:34:57;;;;;;;18.65;4.35;;;;;;;;;;4907451;29;20106;-73
2023/04/21 10:38:38;;;;;;;19.55;3.92;;;;;;;;;;4903838;29;21364;-70
2023/04/21 10:42:18;;;;;;;14.82;4.20;;;;;;;;;;4908313;28;20516;-74
2023/04/21 10:45:57;;;;;;;21.50;4.13;;;;;;;;;;4908988;28;20052;-75
2023/04/21 10:49:50;;;;;;;19.77;4.90;;;;;;;;;;4907461;28;20656;-73
2023/04/21 10:53:45;;;;;;;16.52;3.75;;;;;;;;;;4908046;29;20143;-71
2023/04/21 10:57:26;;;;;;;16.65;3.70;;;;;;;;;;4909120;28;20048;-72
2023/04/21 11:01:06;;;;;;;19.90;3.45;;;;;;;;;;4906909;28;20697;-73
2023/04/21 11:04:46;;;;;;;15.43;3.45;;;;;;;;;;4905644;29;20071;-74
2023/04/21 11:08:29;;;;;;;9.60;3.17;;;;;;;;;;4907285;29;20059;-71
2023/04/21 11:12:11;;;;;;;18.73;3.60;;;;;;;;;;4909437;28;20122;-73
2023/04/21 11:15:52;;;;;;;17.85;4.13;;;;;;;;;;4910503;28;20820;-72
2023/04/21 11:19:33;;;;;;;18.40;4.20;;;;;;;;;;4909605;29;20094;-74
2023/04/21 11:23:13;;;;;;;17.05;3.88;;;;;;;;;;4909562;29;20560;-73
2023/04/21 11:26:55;;;;;;;23.73;4.65;;;;;;;;;;4908758;28;20071;-70
2023/04/21 11:30:36;;;;;;;15.45;3.85;;;;;;;;;;4912772;28;20063;-72
2023/04/21 11:34:20;;;;;;;17.55;4.07;;;;;;;;;;4914391;28;20056;-74
2023/04/21 11:38:04;;;;;;;15.93;3.85;;;;;;;;;;4910520;29;20575;-73
2023/04/21 11:41:44;;;;;;;19.27;3.92;;;;;;;;;;4906954;29;20110;-74
2023/04/21 11:45:26;;;;;;;14.38;3.17;;;;;;;;;;4904306;28;20070;-73
2023/04/21 11:49:06;;;;;;;12.98;3.28;;;;;;;;;;4906655;28;20076;-74
2023/04/21 11:52:47;;;;;;;19.13;4.65;;;;;;;;;;4905286;28;20213;-72
2023/04/21 11:56:27;;;;;;;17.40;3.85;;;;;;;;;;4909042;29;22066;-73
2023/04/21 12:00:09;;;;;;;17.10;3.65;;;;;;;;;;4909530;28;20071;-72
2023/04/21 12:03:47;;;;;;;21.48;4.38;;;;;;;;;;4908634;28;20052;-75
2023/04/21 12:07:37;;;;;;;23.23;5.18;;;;;;;;;;4907807;28;20055;-75
2023/04/21 12:11:19;;;;;;;18.00;4.60;;;;;;;;;;4904274;28;20055;-72
2023/04/21 12:15:00;;;;;;;21.42;4.43;;;;;;;;;;4907578;29;20452;-72
2023/04/21 12:18:39;;;;;;;22.40;4.60;;;;;;;;;;4904768;28;20047;-73
2023/04/21 12:22:22;;;;;;;14.85;3.67;;;;;;;;;;4904503;28;20492;-72
2023/04/21 12:26:16;;;;;;;15.50;3.63;;;;;;;;;;4905023;29;20534;-74
2023/04/21 12:29:56;;;;;;;11.27;3.15;;;;;;;;;;4909013;29;20582;-74
2023/04/21 12:33:37;;;;;;;17.67;3.38;;;;;;;;;;4909190;28;20062;-74
2023/04/21 12:37:17;;;;;;;15.05;3.33;;;;;;;;;;4909431;29;20300;-74
2023/04/21 12:41:00;;;;;;;22.13;4.93;;;;;;;;;;4911140;28;20397;-74
2023/04/21 12:44:40;;;;;;;14.60;3.88;;;;;;;;;;4910485;28;20047;-71
2023/04/21 12:48:21;;;;;;;17.92;3.60;;;;;;;;;;4911719;28;20055;-73
2023/04/21 12:52:04;;;;;;;22.38;4.07;;;;;;;;;;4912216;29;20481;-74
2023/04/21 12:55:42;;;;;;;18.38;4.75;;;;;;;;;;4911163;28;20055;-74
2023/04/21 12:59:22;;;;;;;23.08;3.58;;;;;;;;;;4909924;28;20079;-72
2023/04/21 13:03:03;;;;;;;18.88;4.00;;;;;;;;;;4906599;29;20044;-73
2023/04/21 13:06:43;;;;;;;15.88;4.03;;;;;;;;;;4908989;29;20044;-74
2023/04/21 13:10:24;;;;;;;20.30;4.28;;;;;;;;;;4905223;28;20050;-74
2023/04/21 13:14:04;;;;;;;23.45;4.65;;;;;;;;;;4918229;29;20226;-74
2023/04/21 13:17:45;;;;;;;23.00;3.58;;;;;;;;;;4909817;28;22231;-74
2023/04/21 13:21:26;;;;;;;18.25;4.15;;;;;;;;;;4907775;28;20056;-75
2023/04/21 13:25:06;;;;;;;17.15;4.15;;;;;;;;;;4906078;28;20655;-74
2023/04/21 13:28:46;;;;;;;18.13;4.20;;;;;;;;;;4907991;28;20416;-73
2023/04/21 13:32:30;;;;;;;14.60;3.72;;;;;;;;;;4904488;28;20054;-76
2023/04/21 13:36:11;;;;;;;17.77;3.58;;;;;;;;;;4909654;29;20056;-75
2023/04/21 13:39:52;;;;;;;17.65;4.22;;;;;;;;;;4909117;28;20058;-74
2023/04/21 13:43:32;;;;;;;20.00;3.83;;;;;;;;;;4907347;28;20076;-72
2023/04/21 13:47:12;;;;;;;15.18;4.00;;;;;;;;;;4907319;29;20424;-75
2023/04/21 13:50:53;;;;;;;17.73;4.07;;;;;;;;;;4906568;28;20058;-74
2023/04/21 13:54:33;;;;;;;19.05;3.67;;;;;;;;;;4899368;28;20656;-74
2023/04/21 13:58:13;;;;;;;20.67;3.80;;;;;;;;;;4911832;28;20047;-74
2023/04/21 14:01:54;;;;;;;20.88;3.90;;;;;;;;;;4908077;29;20048;-72
2023/04/21 14:05:34;;;;;;;13.60;2.95;;;;;;;;;;4909384;29;20091;-72
2023/04/21 14:09:14;;;;;;;10.38;2.67;;;;;;;;;;4908430;28;20401;-74
2023/04/21 14:12:57;;;;;;;8.77;3.00;;;;;;;;;;4913825;28;20059;-74
2023/04/21 14:16:38;;;;;;;14.30;2.97;;;;;;;;;;4908345;29;20048;-75
2023/04/21 14:19:38;;;;;;;12.80;3.35;;;;;;;;;;4902666;28;20407;-72
2023/04/21 14:22:04;;;;;;;18.75;3.40;;;;;;;;;;4918064;28;20285;-73
2023/04/21 14:24:31;;;;;;;13.25;3.40;;;;;;;;;;4904486;28;22364;-74
2023/04/21 14:26:58;;;;;;;11.43;2.78;;;;;;;;;;4905188;29;20050;-73
2023/04/21 14:29:24;;;;;;;11.75;2.65;;;;;;;;;;4905961;28;20071;-73
2023/04/21 14:31:52;;;;;;;12.15;2.67;;;;;;;;;;4906921;29;20528;-72
2023/04/21 14:34:18;;;;;;;10.68;3.00;;;;;;;;;;4902018;28;20427;-71
2023/04/21 14:36:48;;;;;;;14.07;3.08;;;;;;;;;;4906288;29;20060;-72
2023/04/21 14:39:15;;;;;;;11.40;2.90;;;;;;;;;;4905927;28;20094;-72
2023/04/21 14:41:41;;;;;;;12.40;2.80;;;;;;;;;;4907859;28;20055;-75
2023/04/21 14:44:07;;;;;;;16.92;2.92;;;;;;;;;;4909293;29;21011;-72
2023/04/21 14:46:33;;;;;;;19.65;3.25;;;;;;;;;;4912845;28;20055;-75
2023/04/21 14:48:59;;;;;;;17.80;3.20;;;;;;;;;;4907401;28;20048;-75
2023/04/21 14:51:25;;;;;;;10.80;3.20;;;;;;;;;;4906964;29;20135;-72
2023/04/21 14:53:51;;;;;;;18.02;3.45;;;;;;;;;;4905758;28;20492;-74
2023/04/21 14:56:18;;;;;;;16.40;3.22;;;;;;;;;;4910595;29;20066;-73
2023/04/21 14:58:43;;;;;;;14.50;3.20;;;;;;;;;;4910068;29;20110;-71
2023/04/21 15:01:12;;;;;;;12.60;2.72;;;;;;;;;;4908709;28;20274;-73
2023/04/21 15:03:40;;;;;;;14.70;3.20;;;;;;;;;;4907512;28;20067;-70
2023/04/21 15:06:08;;;;;;;25.65;4.07;;;;;;;;;;4909630;28;20767;-71
2023/04/21 15:08:34;;;;;;;16.17;3.25;;;;;;;;;;4905415;28;20165;-72
2023/04/21 15:11:04;;;;;;;13.68;3.25;;;;;;;;;;4912894;29;20135;-74
2023/04/21 15:13:31;;;;;;;13.10;2.67;;;;;;;;;;4910186;29;20146;-75
2023/04/21 15:15:57;;;;;;;12.07;2.65;;;;;;;;;;4906658;28;20374;-73
2023/04/21 15:18:23;;;;;;;7.32;2.50;;;;;;;;;;4908699;28;20420;-73
2023/04/21 15:20:49;;;;;;;15.82;3.15;;;;;;;;;;4914216;28;20054;-73
2023/04/21 15:23:15;;;;;;;15.27;3.67;;;;;;;;;;4913402;28;20059;-74
2023/04/21 15:25:42;;;;;;;16.52;3.03;;;;;;;;;;4915465;28;20056;-73
2023/04/21 15:28:08;;;;;;;12.38;2.70;;;;;;;;;;4913289;28;20059;-72
2023/04/21 15:30:35;;;;;;;15.95;2.97;;;;;;;;;;4911975;28;20067;-74
2023/04/21 15:33:02;;;;;;;11.32;2.83;;;;;;;;;;4910708;28;20301;-74
2023/04/21 15:35:28;;;;;;;14.38;3.08;;;;;;;;;;4911621;28;21824;-75
2023/04/21 15:37:53;;;;;;;15.98;2.65;;;;;;;;;;4913089;28;20051;-73
2023/04/21 15:40:20;;;;;;;19.23;3.33;;;;;;;;;;4914228;28;20505;-73
2023/04/21 15:42:48;;;;;;;13.32;3.17;;;;;;;;;;4911970;28;20059;-72
2023/04/21 15:45:16;;;;;;;10.85;2.25;;;;;;;;;;4909304;28;20067;-74
2023/04/21 15:47:42;;;;;;;13.45;2.75;;;;;;;;;;4913868;29;20114;-73
2023/04/21 15:50:10;;;;;;;14.65;3.38;;;;;;;;;;4911906;28;20043;-75
2023/04/21 15:52:42;;;;;;;11.02;2.53;;;;;;;;;;4907740;28;20076;-73
2023/04/21 15:55:11;;;;;;;13.13;3.03;;;;;;;;;;4908685;28;20459;-73
2023/04/21 15:57:37;;;;;;;17.92;3.33;;;;;;;;;;4909270;28;20493;-73
2023/04/21 16:00:05;;;;;;;17.25;3.05;;;;;;;;;;4909864;28;20060;-71
2023/04/21 16:02:30;;;;;;;18.92;2.70;;;;;;;;;;4910803;28;20135;-73
2023/04/21 16:04:56;;;;;;;13.57;2.60;;;;;;;;;;4907395;28;20051;-72
2023/04/21 16:07:22;;;;;;;12.98;3.05;;;;;;;;;;4913208;28;20403;-72
2023/04/21 16:09:48;;;;;;;13.00;3.10;;;;;;;;;;4915907;28;20972;-72
2023/04/21 16:12:14;;;;;;;15.90;3.10;;;;;;;;;;4928245;28;20052;-72
2023/04/21 16:14:41;;;;;;;11.07;2.90;;;;;;;;;;4912950;28;20776;-75
2023/04/21 16:17:11;;;;;;;12.23;3.08;;;;;;;;;;4916429;28;20056;-72
2023/04/21 16:19:41;;;;;;;15.23;2.83;;;;;;;;;;4915237;28;20268;-73
2023/04/21 16:22:08;;;;;;;15.68;3.10;;;;;;;;;;4913489;28;20063;-75
2023/04/21 16:24:34;;;;;;;10.15;2.85;;;;;;;;;;4911168;28;20068;-73
2023/04/21 16:27:04;;;;;;;13.40;2.85;;;;;;;;;;4906079;28;20056;-74
2023/04/21 16:29:31;;;;;;;14.57;2.83;;;;;;;;;;4913427;28;20059;-72
2023/04/21 16:31:57;;;;;;;13.65;2.95;;;;;;;;;;4933349;28;20401;-73
2023/04/21 16:34:23;;;;;;;16.73;2.97;;;;;;;;;;4914058;28;20107;-72
2023/04/21 16:36:50;;;;;;;15.68;2.95;;;;;;;;;;4913975;28;20574;-72
2023/04/21 16:39:17;;;;;;;12.70;3.00;;;;;;;;;;4913590;28;20204;-72
2023/04/21 16:41:43;;;;;;;11.20;2.85;;;;;;;;;;4915041;28;20111;-72
2023/04/21 16:44:09;;;;;;;16.70;2.97;;;;;;;;;;4916376;28;20056;-72
2023/04/21 16:46:37;;;;;;;26.23;2.97;;;;;;;;;;4917867;28;20724;-74
2023/04/21 16:49:06;;;;;;;15.98;3.08;;;;;;;;;;4916776;28;20773;-73
2023/04/21 16:51:32;;;;;;;16.20;2.80;;;;;;;;;;4915910;28;20055;-72
2023/04/21 16:53:58;;;;;;;24.15;3.80;;;;;;;;;;4910870;28;20070;-71
2023/04/21 16:56:24;;;;;;;13.20;2.83;;;;;;;;;;4912676;28;20060;-72
2023/04/21 16:58:53;;;;;;;14.32;2.92;;;;;;;;;;4912695;28;20522;-74
2023/04/21 17:01:23;;;;;;;22.23;3.60;;;;;;;;;;4914544;28;20040;-72
2023/04/21 17:03:50;;;;;;;11.88;3.08;;;;;;;;;;4915076;29;20064;-75
2023/04/21 17:06:19;;;;;;;13.10;3.08;;;;;;;;;;4915732;29;20186;-72
2023/04/21 17:08:47;;;;;;;13.10;3.58;;;;;;;;;;4914301;28;20059;-72
2023/04/21 17:11:13;;;;;;;15.73;2.70;;;;;;;;;;4923837;28;20059;-73